Time;durP1;ratioP1;P1;durP2;ratioP2;P2;SDS_P1;SDS_P2;PMS_P1;PMS_P2;Temp;Humidity;BMP_temperature;BMP_pressure;BME280_temperature;BME280_humidity;BME280_pressure;Samples;Min_cycle;Max_cycle;Signal;HPM_P1;HPM_P2
2022/04/01 00:00:13;;;;;;;0.00;0.00;;;8.90;90.60;;;;;;4150664;28;20099;-73
2022/04/01 00:02:38;;;;;;;0.00;0.00;;;8.90;90.60;;;;;;4150654;28;20053;-73
2022/04/01 00:05:00;;;;;;;0.00;0.00;;;8.90;90.60;;;;;;4149973;28;20046;-73
2022/04/01 00:07:25;;;;;;;0.00;0.00;;;8.80;90.70;;;;;;4164051;28;20046;-72
2022/04/01 00:09:54;;;;;;;0.00;0.00;;;8.90;90.70;;;;;;4137352;28;20128;-74
2022/04/01 00:12:19;;;;;;;0.00;0.00;;;8.90;90.50;;;;;;4149932;28;20054;-73
2022/04/01 00:14:43;;;;;;;0.00;0.00;;;8.90;90.70;;;;;;4123372;28;20041;-73
2022/04/01 00:17:09;;;;;;;0.00;0.00;;;8.90;90.70;;;;;;4164001;28;20041;-72
2022/04/01 00:19:34;;;;;;;0.00;0.00;;;8.90;90.80;;;;;;4164099;28;20056;-71
2022/04/01 00:22:01;;;;;;;0.00;0.00;;;8.90;90.70;;;;;;4150327;28;20053;-75
2022/04/01 00:24:23;;;;;;;0.00;0.00;;;9.00;90.70;;;;;;4150083;28;20045;-72
2022/04/01 00:26:50;;;;;;;0.00;0.00;;;8.90;90.50;;;;;;4149614;28;20108;-74
2022/04/01 00:29:16;;;;;;;0.00;0.00;;;8.80;90.60;;;;;;4150090;28;20052;-74
2022/04/01 00:31:38;;;;;;;0.00;0.00;;;8.70;90.60;;;;;;4150020;28;20392;-71
2022/04/01 00:34:15;;;;;;;0.00;0.00;;;8.60;90.70;;;;;;4136441;28;20097;-72
2022/04/01 00:36:39;;;;;;;0.00;0.00;;;8.50;90.80;;;;;;4150100;28;20052;-74
2022/04/01 00:39:03;;;;;;;0.00;0.00;;;8.50;91.10;;;;;;4152563;28;20045;-72
2022/04/01 00:41:28;;;;;;;0.00;0.00;;;8.40;91.10;;;;;;4139555;28;20041;-72
2022/04/01 00:44:28;;;;;;;0.00;0.00;;;8.50;91.40;;;;;;4166683;28;20077;-74
2022/04/01 00:46:53;;;;;;;0.00;0.00;;;8.50;91.20;;;;;;4152516;28;20054;-71
2022/04/01 00:49:21;;;;;;;0.00;0.00;;;8.50;91.10;;;;;;4166539;28;20122;-73
2022/04/01 00:51:54;;;;;;;0.00;0.00;;;8.40;91.30;;;;;;4166587;28;20059;-71
2022/04/01 00:54:17;;;;;;;0.00;0.00;;;8.30;91.30;;;;;;4153058;28;20076;-74
2022/04/01 00:56:41;;;;;;;0.00;0.00;;;8.40;91.40;;;;;;4152584;28;20062;-73
2022/04/01 00:59:08;;;;;;;0.00;0.00;;;8.30;91.30;;;;;;4152260;28;20053;-72
2022/04/01 01:01:36;;;;;;;0.00;0.00;;;8.40;91.40;;;;;;4152973;28;20466;-72
2022/04/01 01:04:02;;;;;;;0.00;0.00;;;8.50;91.30;;;;;;4152685;28;20342;-72
2022/04/01 01:06:25;;;;;;;0.00;0.00;;;8.60;91.20;;;;;;4139174;28;20049;-70
2022/04/01 01:08:53;;;;;;;0.00;0.00;;;8.50;91.10;;;;;;4138412;28;20473;-70
2022/04/01 01:11:16;;;;;;;0.00;0.00;;;8.50;91.10;;;;;;4139165;28;20054;-74
2022/04/01 01:13:41;;;;;;;0.00;0.00;;;8.40;91.10;;;;;;4152481;28;20042;-73
2022/04/01 01:16:03;;;;;;;0.00;0.00;;;8.50;91.20;;;;;;4166176;28;20099;-73
2022/04/01 01:18:27;;;;;;;0.00;0.00;;;8.40;91.10;;;;;;4139013;28;20058;-74
2022/04/01 01:20:50;;;;;;;0.00;0.00;;;8.30;91.20;;;;;;4138480;28;20050;-74
2022/04/01 01:23:12;;;;;;;0.00;0.00;;;8.30;91.20;;;;;;4166470;28;20041;-74
2022/04/01 01:25:36;;;;;;;0.00;0.00;;;8.20;91.20;;;;;;4139078;28;20141;-72
2022/04/01 01:28:05;;;;;;;0.00;0.00;;;8.20;91.20;;;;;;4152302;28;20048;-72
2022/04/01 01:30:30;;;;;;;0.00;0.00;;;8.20;91.30;;;;;;4166060;28;20042;-73
2022/04/01 01:32:53;;;;;;;0.00;0.00;;;8.20;91.20;;;;;;4151958;28;20053;-75
2022/04/01 01:35:18;;;;;;;0.00;0.00;;;8.30;91.30;;;;;;4152715;28;20046;-69
2022/04/01 01:37:42;;;;;;;0.00;0.00;;;8.30;91.30;;;;;;4138633;28;20054;-70
2022/04/01 01:40:05;;;;;;;0.00;0.00;;;8.20;91.10;;;;;;4138691;28;20350;-75
2022/04/01 01:42:30;;;;;;;0.00;0.00;;;8.20;91.30;;;;;;4152469;28;20049;-73
2022/04/01 01:44:58;;;;;;;0.00;0.00;;;8.20;91.20;;;;;;4151523;28;20053;-72
2022/04/01 01:47:20;;;;;;;0.00;0.00;;;8.30;91.20;;;;;;4151883;28;20057;-73
2022/04/01 01:55:24;;;;;;;0.00;0.00;;;8.10;91.00;;;;;;4121900;28;20061;-73
2022/04/01 01:57:46;;;;;;;0.00;0.00;;;8.00;91.20;;;;;;4138173;28;20049;-73
2022/04/01 02:00:18;;;;;;;0.00;0.00;;;7.90;91.10;;;;;;4151884;28;20555;-73
2022/04/01 02:02:44;;;;;;;0.00;0.00;;;7.90;91.20;;;;;;4151586;28;20061;-74
2022/04/01 02:05:10;;;;;;;0.00;0.00;;;7.80;90.90;;;;;;4151529;28;20038;-73
2022/04/01 02:07:33;;;;;;;0.00;0.00;;;7.90;91.00;;;;;;4124858;28;20065;-70
2022/04/01 02:09:55;;;;;;;0.00;0.00;;;7.70;90.80;;;;;;4124909;28;20054;-74
2022/04/01 02:12:17;;;;;;;0.00;0.00;;;7.70;90.80;;;;;;4151680;28;20049;-73
2022/04/01 02:14:44;;;;;;;0.00;0.00;;;7.70;90.70;;;;;;4164943;28;20045;-72
2022/04/01 02:17:06;;;;;;;0.00;0.00;;;7.80;90.60;;;;;;4165193;28;20111;-72
2022/04/01 02:19:31;;;;;;;0.00;0.00;;;7.70;90.60;;;;;;4151351;28;20042;-71
2022/04/01 02:21:54;;;;;;;0.00;0.00;;;7.80;90.70;;;;;;4137958;28;20560;-70
2022/04/01 02:24:23;;;;;;;0.00;0.00;;;7.80;90.90;;;;;;4151464;28;20042;-73
2022/04/01 02:26:49;;;;;;;0.00;0.00;;;7.80;90.70;;;;;;4137217;28;20050;-72
2022/04/01 02:29:12;;;;;;;0.00;0.00;;;7.90;90.70;;;;;;4151187;28;20049;-72
2022/04/01 02:31:56;;;;;;;0.00;0.00;;;7.90;90.70;;;;;;4164850;28;20041;-74
2022/04/01 02:34:42;;;;;;;0.00;0.00;;;7.90;90.60;;;;;;4151335;28;20068;-72
2022/04/01 02:37:06;;;;;;;0.00;0.00;;;7.90;90.60;;;;;;4137191;28;20129;-72
2022/04/01 02:39:28;;;;;;;0.00;0.00;;;7.80;90.50;;;;;;4124206;28;20051;-75
2022/04/01 02:41:51;;;;;;;0.00;0.00;;;7.70;90.50;;;;;;4137685;28;20222;-72
2022/04/01 02:44:16;;;;;;;0.00;0.00;;;7.70;90.40;;;;;;4151189;28;20056;-73
2022/04/01 02:46:39;;;;;;;0.00;0.00;;;7.50;90.30;;;;;;4124527;28;20046;-73
2022/04/01 02:49:06;;;;;;;0.00;0.00;;;7.40;90.70;;;;;;4150629;28;20128;-71
2022/04/01 02:51:34;;;;;;;0.00;0.00;;;7.40;90.70;;;;;;4150892;28;20583;-75
2022/04/01 02:54:05;;;;;;;0.00;0.00;;;7.40;90.70;;;;;;4164642;28;20061;-70
2022/04/01 02:56:31;;;;;;;0.00;0.00;;;7.50;90.70;;;;;;4150512;28;20060;-69
2022/04/01 02:58:54;;;;;;;0.00;0.00;;;7.60;90.70;;;;;;4150535;28;20061;-71
2022/04/01 03:01:17;;;;;;;0.00;0.00;;;7.50;90.40;;;;;;4164435;28;20096;-72
2022/04/01 03:03:44;;;;;;;0.00;0.00;;;7.40;90.50;;;;;;4137477;28;20350;-73
2022/04/01 03:06:09;;;;;;;0.00;0.00;;;7.30;90.50;;;;;;4150828;28;20046;-73
2022/04/01 03:08:40;;;;;;;0.00;0.00;;;7.30;90.90;;;;;;4137145;28;20488;-72
2022/04/01 03:11:02;;;;;;;0.00;0.00;;;7.30;90.90;;;;;;4150311;28;20426;-73
2022/04/01 03:13:26;;;;;;;0.00;0.00;;;7.20;90.90;;;;;;4137019;28;20050;-74
2022/04/01 03:16:12;;;;;;;0.00;0.00;;;7.30;90.90;;;;;;4153091;28;20041;-73
2022/04/01 03:18:43;;;;;;;0.00;0.00;;;7.40;90.70;;;;;;4136565;28;20054;-72
2022/04/01 03:21:10;;;;;;;0.00;0.00;;;7.50;90.70;;;;;;4150722;28;20046;-70
2022/04/01 03:23:40;;;;;;;0.00;0.00;;;7.50;90.60;;;;;;4150751;28;20050;-73
2022/04/01 03:26:06;;;;;;;0.00;0.00;;;7.60;90.60;;;;;;4151207;28;20068;-73
2022/04/01 03:28:51;;;;;;;0.00;0.00;;;7.50;90.40;;;;;;4153125;28;20149;-71
2022/04/01 03:31:14;;;;;;;0.00;0.00;;;7.50;90.50;;;;;;4164252;28;20502;-73
2022/04/01 03:33:38;;;;;;;0.00;0.00;;;7.40;90.60;;;;;;4123723;28;20056;-72
2022/04/01 03:36:04;;;;;;;0.00;0.00;;;7.50;90.60;;;;;;4137211;28;20046;-73
2022/04/01 03:38:31;;;;;;;0.00;0.00;;;7.50;90.70;;;;;;4137020;28;20046;-70
2022/04/01 03:40:53;;;;;;;0.00;0.00;;;7.40;90.50;;;;;;4150176;28;20150;-72
2022/04/01 03:43:23;;;;;;;0.00;0.00;;;7.40;90.60;;;;;;4137434;28;20054;-73
2022/04/01 03:45:49;;;;;;;0.00;0.00;;;7.50;90.60;;;;;;4150493;28;20129;-68
2022/04/01 03:48:23;;;;;;;0.00;0.00;;;7.50;90.40;;;;;;4150405;28;20049;-70
2022/04/01 03:50:51;;;;;;;;;;;7.50;90.30;;;;;;4164158;28;20057;-70
2022/04/01 03:53:22;;;;;;;0.00;0.00;;;7.50;90.40;;;;;;4150365;28;19928;-71
2022/04/01 03:55:47;;;;;;;0.00;0.00;;;7.50;90.40;;;;;;4150870;28;20046;-72
2022/04/01 03:58:13;;;;;;;0.00;0.00;;;7.50;90.40;;;;;;4164214;28;20080;-71
2022/04/01 04:00:57;;;;;;;0.00;0.00;;;7.40;90.40;;;;;;4163650;28;20050;-73
2022/04/01 04:03:31;;;;;;;0.00;0.00;;;7.40;90.40;;;;;;4164182;28;20041;-72
2022/04/01 04:05:57;;;;;;;0.00;0.00;;;7.50;90.40;;;;;;4164130;28;20051;-72
2022/04/01 04:08:22;;;;;;;0.00;0.00;;;7.50;90.40;;;;;;4136781;28;20075;-72
2022/04/01 04:10:49;;;;;;;0.00;0.00;;;7.50;90.30;;;;;;4136157;28;20359;-70
2022/04/01 04:13:19;;;;;;;0.00;0.00;;;7.50;90.40;;;;;;4152859;28;20050;-73
2022/04/01 04:16:13;;;;;;;0.00;0.00;;;7.50;90.40;;;;;;4153577;28;20129;-71
2022/04/01 04:19:22;;;;;;;0.00;0.00;;;7.50;90.40;;;;;;4137112;28;20119;-72
2022/04/01 04:22:01;;;;;;;0.00;0.00;;;7.50;90.40;;;;;;4135730;28;20054;-75
2022/04/01 04:24:43;;;;;;;0.00;0.00;;;7.50;90.40;;;;;;4139923;28;20170;-71
2022/04/01 04:27:13;;;;;;;0.00;0.00;;;7.50;90.40;;;;;;4153128;28;20045;-73
2022/04/01 04:29:54;;;;;;;0.00;0.00;;;7.40;90.50;;;;;;4153378;28;20444;-72
2022/04/01 04:32:35;;;;;;;0.00;0.00;;;7.50;90.50;;;;;;4153319;28;20121;-72
2022/04/01 04:35:04;;;;;;;0.00;0.00;;;7.40;90.50;;;;;;4152872;28;20045;-73
2022/04/01 04:37:32;;;;;;;0.00;0.00;;;7.40;90.50;;;;;;4153706;28;20065;-72
2022/04/01 04:39:56;;;;;;;0.00;0.00;;;7.40;90.60;;;;;;4139820;28;20050;-72
2022/04/01 04:42:22;;;;;;;0.00;0.00;;;7.40;90.60;;;;;;4153956;28;20151;-74
2022/04/01 04:44:45;;;;;;;0.00;0.00;;;7.40;90.60;;;;;;4152709;28;20056;-73
2022/04/01 04:47:25;;;;;;;0.00;0.00;;;7.40;90.60;;;;;;4153122;28;20042;-74
2022/04/01 04:49:50;;;;;;;0.00;0.00;;;7.40;90.60;;;;;;4152955;28;20081;-70
2022/04/01 04:52:17;;;;;;;0.00;0.00;;;7.40;90.50;;;;;;4166738;28;20423;-71
2022/04/01 04:54:43;;;;;;;0.00;0.00;;;7.50;90.40;;;;;;4166137;28;20061;-72
2022/04/01 04:57:08;;;;;;;0.00;0.00;;;7.40;90.40;;;;;;4153424;28;20057;-74
2022/04/01 04:59:38;;;;;;;0.00;0.00;;;7.50;90.50;;;;;;4153187;28;20081;-72
2022/04/01 05:02:14;;;;;;;0.00;0.00;;;7.50;90.30;;;;;;4139402;28;20054;-74
2022/04/01 05:05:03;;;;;;;0.00;0.00;;;7.40;90.50;;;;;;4125840;28;20282;-74
2022/04/01 05:07:53;;;;;;;0.00;0.00;;;7.40;90.60;;;;;;4166365;28;20081;-75
2022/04/01 05:11:06;;;;;;;0.00;0.00;;;7.40;90.50;;;;;;4144129;28;20045;-71
2022/04/01 05:13:35;;;;;;;0.00;0.00;;;7.30;90.40;;;;;;4128162;28;20086;-75
2022/04/01 05:16:15;;;;;;;0.00;0.00;;;7.20;90.60;;;;;;4166372;28;20045;-72
2022/04/01 05:18:40;;;;;;;0.00;0.00;;;7.20;90.80;;;;;;4152655;28;20416;-73
2022/04/01 05:21:04;;;;;;;0.00;0.00;;;7.20;90.90;;;;;;4166109;28;20072;-72
2022/04/01 05:23:51;;;;;;;0.00;0.00;;;7.20;90.70;;;;;;4152552;28;20084;-74
2022/04/01 05:26:16;;;;;;;0.00;0.00;;;7.20;90.70;;;;;;4152513;28;20365;-71
2022/04/01 05:29:07;;;;;;;0.00;0.00;;;7.20;90.60;;;;;;4165655;28;20543;-71
2022/04/01 05:32:03;;;;;;;0.00;0.00;;;7.20;90.70;;;;;;4139092;28;20093;-73
2022/04/01 05:34:40;;;;;;;0.00;0.00;;;7.10;90.50;;;;;;4139055;28;20053;-74
2022/04/01 05:37:07;;;;;;;0.00;0.00;;;7.10;90.70;;;;;;4152074;28;20041;-73
2022/04/01 05:39:37;;;;;;;0.00;0.00;;;7.10;90.80;;;;;;4139088;28;20050;-72
2022/04/01 05:42:01;;;;;;;0.00;0.00;;;7.10;90.80;;;;;;4152323;28;20038;-73
2022/04/01 05:44:33;;;;;;;0.00;0.00;;;7.20;90.90;;;;;;4140058;28;20073;-72
2022/04/01 05:47:01;;;;;;;0.00;0.00;;;7.30;90.40;;;;;;4165678;28;20077;-72
2022/04/01 05:49:25;;;;;;;0.00;0.00;;;7.20;90.40;;;;;;4152010;28;20056;-74
2022/04/01 05:51:59;;;;;;;0.00;0.00;;;7.20;90.50;;;;;;4152446;28;20479;-74
2022/04/01 05:54:28;;;;;;;0.00;0.00;;;7.20;90.30;;;;;;4152394;28;20089;-75
2022/04/01 05:56:51;;;;;;;0.00;0.00;;;7.10;90.50;;;;;;4138218;28;20069;-74
2022/04/01 05:59:16;;;;;;;0.00;0.00;;;7.10;90.40;;;;;;4138451;28;20053;-68
2022/04/01 06:01:46;;;;;;;0.00;0.00;;;7.20;90.40;;;;;;4151701;28;20149;-68
2022/04/01 06:04:39;;;;;;;0.00;0.00;;;7.10;90.40;;;;;;4165770;28;20053;-67
2022/04/01 06:07:10;;;;;;;0.00;0.00;;;7.10;90.60;;;;;;4151603;28;20369;-68
2022/04/01 06:09:36;;;;;;;0.00;0.00;;;7.20;90.50;;;;;;4124907;28;20050;-69
2022/04/01 06:12:34;;;;;;;0.00;0.00;;;7.30;90.40;;;;;;4165545;28;20465;-69
2022/04/01 06:15:17;;;;;;;0.00;0.00;;;7.40;90.20;;;;;;4151312;28;20426;-67
2022/04/01 06:18:24;;;;;;;0.00;0.00;;;7.40;90.20;;;;;;4165348;28;20092;-67
2022/04/01 06:20:48;;;;;;;0.00;0.00;;;7.40;90.10;;;;;;4137739;28;20127;-68
2022/04/01 06:23:35;;;;;;;0.00;0.00;;;7.30;90.10;;;;;;4165318;28;20144;-67
2022/04/01 06:26:02;;;;;;;0.00;0.00;;;7.10;90.40;;;;;;4151545;28;20053;-67
2022/04/01 06:28:31;;;;;;;0.00;0.00;;;7.20;90.60;;;;;;4151617;28;20054;-68
2022/04/01 06:31:03;;;;;;;0.00;0.00;;;7.30;90.50;;;;;;4137832;28;20050;-68
2022/04/01 06:33:50;;;;;;;0.00;0.00;;;7.30;90.40;;;;;;4151481;28;20050;-67
2022/04/01 06:36:46;;;;;;;0.00;0.00;;;7.30;90.30;;;;;;4164876;28;20049;-70
2022/04/01 06:39:10;;;;;;;0.00;0.00;;;7.20;90.40;;;;;;4148077;28;20038;-68
2022/04/01 06:41:46;;;;;;;0.00;0.00;;;7.20;90.30;;;;;;4144053;28;20559;-68
2022/04/01 06:44:27;;;;;;;0.00;0.00;;;7.10;90.40;;;;;;4118250;28;20046;-69
2022/04/01 06:47:10;;;;;;;0.00;0.00;;;7.10;90.40;;;;;;4117481;28;20134;-68
2022/04/01 06:49:34;;;;;;;0.00;0.00;;;7.10;90.10;;;;;;4118578;28;20141;-67
2022/04/01 06:52:19;;;;;;;0.00;0.00;;;7.00;90.40;;;;;;4121191;28;20042;-69
2022/04/01 06:55:10;;;;;;;0.00;0.00;;;7.00;90.30;;;;;;4131529;28;20487;-68
2022/04/01 06:57:52;;;;;;;0.00;0.00;;;7.00;90.30;;;;;;4132536;28;20117;-69
2022/04/01 07:00:32;;;;;;;0.00;0.00;;;7.00;90.70;;;;;;4136545;28;20141;-67
2022/04/01 07:03:00;;;;;;;0.00;0.00;;;7.00;90.70;;;;;;4120665;28;20058;-69
2022/04/01 07:05:24;;;;;;;0.00;0.00;;;7.10;90.60;;;;;;4148615;28;20379;-69
2022/04/01 07:07:46;;;;;;;0.00;0.00;;;7.10;90.40;;;;;;4148204;28;20046;-68
2022/04/01 07:10:11;;;;;;;0.00;0.00;;;7.10;90.40;;;;;;4148226;28;20129;-69
2022/04/01 07:12:36;;;;;;;0.00;0.00;;;7.20;90.50;;;;;;4148289;28;20048;-68
2022/04/01 07:15:01;;;;;;;0.00;0.00;;;7.20;90.20;;;;;;4147308;28;20057;-68
2022/04/01 07:17:24;;;;;;;0.00;0.00;;;7.20;90.10;;;;;;4147894;28;20050;-69
2022/04/01 07:19:47;;;;;;;0.00;0.00;;;7.10;90.20;;;;;;4147886;28;20038;-68
2022/04/01 07:22:13;;;;;;;0.00;0.00;;;7.10;90.40;;;;;;4134697;28;20543;-67
2022/04/01 07:24:38;;;;;;;0.00;0.00;;;7.20;90.40;;;;;;4147847;28;20057;-67
2022/04/01 07:27:05;;;;;;;0.00;0.00;;;7.10;90.40;;;;;;4161133;28;20562;-68
2022/04/01 07:29:32;;;;;;;0.00;0.00;;;7.10;90.60;;;;;;4147672;28;20432;-69
2022/04/01 07:34:37;;;;;;;0.00;0.00;;;7.00;90.50;;;;;;4147588;28;20405;-69
2022/04/01 07:37:03;;;;;;;0.00;0.00;;;7.10;90.40;;;;;;4147332;28;20042;-69
2022/04/01 07:39:28;;;;;;;0.00;0.00;;;7.20;90.30;;;;;;4133912;28;20042;-68
2022/04/01 07:41:50;;;;;;;0.00;0.00;;;7.30;90.10;;;;;;4134134;28;20054;-66
2022/04/01 07:44:15;;;;;;;0.00;0.00;;;7.30;90.00;;;;;;4134219;28;20045;-68
2022/04/01 07:46:37;;;;;;;0.00;0.00;;;7.40;89.70;;;;;;4137713;28;20077;-69
2022/04/01 07:49:04;;;;;;;0.00;0.00;;;7.20;89.10;;;;;;4133934;28;20042;-68
2022/04/01 07:51:26;;;;;;;0.00;0.00;;;7.10;89.90;;;;;;4147758;28;20042;-68
2022/04/01 07:53:50;;;;;;;0.00;0.00;;;7.10;89.90;;;;;;4147775;28;20463;-68
2022/04/01 07:56:15;;;;;;;0.00;0.00;;;7.10;90.10;;;;;;4134786;28;20098;-68
2022/04/01 07:58:39;;;;;;;0.00;0.00;;;7.00;90.00;;;;;;4163856;28;20061;-66
2022/04/01 08:01:05;;;;;;;0.00;0.00;;;6.90;90.00;;;;;;4150151;28;20132;-67
2022/04/01 08:03:28;;;;;;;0.00;0.00;;;6.90;90.00;;;;;;4163988;28;20038;-68
2022/04/01 08:05:52;;;;;;;0.00;0.00;;;6.90;90.00;;;;;;4136334;28;20039;-67
2022/04/01 08:08:15;;;;;;;0.00;0.00;;;7.00;89.80;;;;;;4150002;28;20046;-69
2022/04/01 08:10:42;;;;;;;0.00;0.00;;;7.00;89.10;;;;;;4149777;28;20092;-67
2022/04/01 08:13:09;;;;;;;0.00;0.00;;;6.80;89.70;;;;;;4150093;28;20156;-67
2022/04/01 08:15:32;;;;;;;0.00;0.00;;;6.80;90.30;;;;;;4136779;28;20054;-68
2022/04/01 08:17:56;;;;;;;0.00;0.00;;;6.80;90.20;;;;;;4136496;28;20141;-68
2022/04/01 08:20:18;;;;;;;0.00;0.00;;;6.70;90.10;;;;;;4139548;28;20108;-68
2022/04/01 08:22:43;;;;;;;0.00;0.00;;;6.90;90.00;;;;;;4152311;28;20057;-67
2022/04/01 08:25:13;;;;;;;0.00;0.00;;;6.90;90.00;;;;;;4152589;28;20097;-68
2022/04/01 08:27:35;;;;;;;0.00;0.00;;;6.90;89.90;;;;;;4166488;28;20049;-68
2022/04/01 08:29:59;;;;;;;0.00;0.00;;;6.80;90.20;;;;;;4152776;28;20444;-69
2022/04/01 08:32:27;;;;;;;0.00;0.00;;;6.80;90.30;;;;;;4152628;28;20141;-68
2022/04/01 08:34:49;;;;;;;0.00;0.00;;;6.90;90.30;;;;;;4165741;28;20085;-68
2022/04/01 08:37:11;;;;;;;0.00;0.00;;;6.90;90.10;;;;;;4166198;28;20052;-68
2022/04/01 08:39:43;;;;;;;0.00;0.00;;;7.00;90.20;;;;;;4152812;28;20085;-68
2022/04/01 08:42:06;;;;;;;0.00;0.00;;;7.00;89.90;;;;;;4166034;28;20052;-67
2022/04/01 08:44:31;;;;;;;0.00;0.00;;;7.00;90.00;;;;;;4166122;28;20589;-68
2022/04/01 08:46:56;;;;;;;0.00;0.00;;;6.90;90.00;;;;;;4152088;28;20180;-68
2022/04/01 08:49:23;;;;;;;0.00;0.00;;;6.90;90.10;;;;;;4165990;28;20061;-67
2022/04/01 08:51:45;;;;;;;0.00;0.00;;;6.90;90.00;;;;;;4166190;28;20083;-69
2022/04/01 08:54:15;;;;;;;0.00;0.00;;;6.80;90.30;;;;;;4153215;28;20387;-68
2022/04/01 08:56:42;;;;;;;0.00;0.00;;;6.80;90.10;;;;;;4151918;28;20421;-68
2022/04/01 08:59:09;;;;;;;0.00;0.00;;;6.60;90.40;;;;;;4153544;28;20038;-66
2022/04/01 09:01:47;;;;;;;0.00;0.00;;;6.60;90.60;;;;;;4155209;28;20037;-67
2022/04/01 09:04:20;;;;;;;0.00;0.00;;;6.70;90.30;;;;;;4168797;28;20125;-67
2022/04/01 09:06:45;;;;;;;0.00;0.00;;;6.60;90.20;;;;;;4155044;28;20049;-67
2022/04/01 09:09:24;;;;;;;0.00;0.00;;;6.70;90.10;;;;;;4168787;28;20076;-67
2022/04/01 09:12:15;;;;;;;0.00;0.00;;;6.80;89.80;;;;;;4154909;28;20042;-68
2022/04/01 09:14:39;;;;;;;0.00;0.00;;;6.70;89.10;;;;;;4168747;28;20041;-67
2022/04/01 09:17:02;;;;;;;0.00;0.00;;;6.60;89.80;;;;;;4154734;28;20059;-68
2022/04/01 09:19:32;;;;;;;0.00;0.00;;;6.60;89.20;;;;;;4168650;28;20061;-67
2022/04/01 09:21:54;;;;;;;0.00;0.00;;;6.60;88.90;;;;;;4168542;28;20041;-67
2022/04/01 09:24:19;;;;;;;0.00;0.00;;;6.60;89.40;;;;;;4154867;28;20452;-66
2022/04/01 09:26:41;;;;;;;0.00;0.00;;;6.60;88.80;;;;;;4167931;28;20056;-65
2022/04/01 09:29:11;;;;;;;0.00;0.00;;;6.70;88.50;;;;;;4154798;28;20388;-68
2022/04/01 09:31:38;;;;;;;0.00;0.00;;;6.70;88.50;;;;;;4141391;28;20050;-67
2022/04/01 09:34:09;;;;;;;0.00;0.00;;;6.70;88.30;;;;;;4168398;28;20059;-69
2022/04/01 09:36:33;;;;;;;0.00;0.00;;;6.70;88.20;;;;;;4154952;28;20073;-67
2022/04/01 09:38:58;;;;;;;0.00;0.00;;;6.60;88.20;;;;;;4154217;28;20053;-68
2022/04/01 09:41:27;;;;;;;0.00;0.00;;;6.60;88.40;;;;;;4168517;28;20064;-65
2022/04/01 09:44:15;;;;;;;0.00;0.00;;;6.50;88.80;;;;;;4154351;28;20087;-67
2022/04/01 09:46:44;;;;;;;0.00;0.00;;;6.40;89.30;;;;;;4154538;28;20054;-69
2022/04/01 09:49:10;;;;;;;0.00;0.00;;;6.40;89.50;;;;;;4167963;28;20149;-68
2022/04/01 09:51:39;;;;;;;0.00;0.00;;;6.40;89.70;;;;;;4168507;28;20041;-67
2022/04/01 09:54:04;;;;;;;0.00;0.00;;;6.40;89.90;;;;;;4168294;28;20045;-67
2022/04/01 09:56:49;;;;;;;0.00;0.00;;;6.40;89.70;;;;;;4143491;28;20074;-69
2022/04/01 09:59:13;;;;;;;0.00;0.00;;;6.50;89.70;;;;;;4155248;28;20049;-68
2022/04/01 10:01:39;;;;;;;0.00;0.00;;;6.50;89.60;;;;;;4168355;28;20045;-68
2022/04/01 10:04:05;;;;;;;0.00;0.00;;;6.40;89.80;;;;;;4154870;28;20105;-68
2022/04/01 10:06:32;;;;;;;0.00;0.00;;;6.40;89.60;;;;;;4168672;28;20041;-68
2022/04/01 10:09:02;;;;;;;0.00;0.00;;;6.50;90.00;;;;;;4168092;28;20046;-67
2022/04/01 10:11:26;;;;;;;0.00;0.00;;;6.20;89.90;;;;;;4153808;28;20054;-68
2022/04/01 10:13:52;;;;;;;0.00;0.00;;;6.00;90.60;;;;;;4154396;28;20108;-68
2022/04/01 10:16:19;;;;;;;0.00;0.00;;;6.20;90.60;;;;;;4155275;28;20053;-67
2022/04/01 10:18:47;;;;;;;0.00;0.00;;;6.20;90.40;;;;;;4154171;28;20056;-67
2022/04/01 10:21:13;;;;;;;0.00;0.00;;;6.20;90.10;;;;;;4168300;28;20136;-68
2022/04/01 10:23:39;;;;;;;0.00;0.00;;;6.10;90.20;;;;;;4167969;28;20053;-66
2022/04/01 10:26:13;;;;;;;0.00;0.00;;;6.20;90.30;;;;;;4167907;28;20856;-68
2022/04/01 10:28:37;;;;;;;0.00;0.00;;;6.10;90.30;;;;;;4154229;28;20080;-67
2022/04/01 10:31:01;;;;;;;0.00;0.00;;;6.20;90.30;;;;;;4153464;28;20140;-67
2022/04/01 10:33:32;;;;;;;0.00;0.00;;;6.20;90.20;;;;;;4168014;28;20111;-66
2022/04/01 10:35:55;;;;;;;0.00;0.00;;;6.20;89.90;;;;;;4167573;28;20096;-67
2022/04/01 10:38:23;;;;;;;0.00;0.00;;;6.10;90.00;;;;;;4154171;28;20049;-66
2022/04/01 10:40:50;;;;;;;0.00;0.00;;;6.20;89.90;;;;;;4153029;28;20049;-71
2022/04/01 10:43:17;;;;;;;0.00;0.00;;;6.20;90.00;;;;;;4151815;28;20385;-68
2022/04/01 10:45:56;;;;;;;0.00;0.00;;;6.20;89.50;;;;;;4150908;28;20052;-67
2022/04/01 10:53:53;;;;;;;0.00;0.00;;;6.10;89.60;;;;;;4150584;28;20068;-67
2022/04/01 10:56:22;;;;;;;0.00;0.00;;;6.00;89.20;;;;;;4136961;28;20057;-68
2022/04/01 10:59:07;;;;;;;0.00;0.00;;;6.10;89.60;;;;;;4150326;28;20054;-67
2022/04/01 11:01:32;;;;;;;0.00;0.00;;;6.20;89.30;;;;;;4150703;28;20054;-67
2022/04/01 11:04:12;;;;;;;0.00;0.00;;;6.10;89.20;;;;;;4150730;28;20081;-67
2022/04/01 11:07:00;;;;;;;0.00;0.00;;;6.10;89.40;;;;;;4150699;28;20057;-68
2022/04/01 11:09:45;;;;;;;0.00;0.00;;;6.10;89.00;;;;;;4163844;28;20045;-68
2022/04/01 11:12:21;;;;;;;0.00;0.00;;;6.10;89.20;;;;;;4150715;28;20046;-67
2022/04/01 11:15:07;;;;;;;0.00;0.00;;;6.20;88.80;;;;;;4163702;28;20111;-68
2022/04/01 11:17:55;;;;;;;0.00;0.00;;;6.30;88.60;;;;;;4150571;28;20042;-67
2022/04/01 11:20:26;;;;;;;0.00;0.00;;;6.30;88.50;;;;;;4150584;28;20057;-67
2022/04/01 11:22:56;;;;;;;0.00;0.00;;;6.20;88.90;;;;;;4150038;28;20058;-67
2022/04/01 11:25:33;;;;;;;0.00;0.00;;;6.10;89.20;;;;;;4164144;28;20045;-69
2022/04/01 11:28:06;;;;;;;0.00;0.00;;;6.10;90.00;;;;;;4164185;28;20045;-72
2022/04/01 11:30:31;;;;;;;0.00;0.00;;;6.20;89.60;;;;;;4136645;28;20046;-68
2022/04/01 11:32:57;;;;;;;0.00;0.00;;;6.20;90.00;;;;;;4150094;28;20050;-68
2022/04/01 11:35:31;;;;;;;0.00;0.00;;;6.30;90.00;;;;;;4150284;28;20077;-67
2022/04/01 11:37:53;;;;;;;0.00;0.00;;;6.20;90.30;;;;;;4166321;28;20052;-66
2022/04/01 11:40:27;;;;;;;0.00;0.00;;;6.30;90.30;;;;;;4152532;28;20045;-67
2022/04/01 11:43:02;;;;;;;0.00;0.00;;;6.40;90.40;;;;;;4158289;28;20148;-68
2022/04/01 11:45:30;;;;;;;0.00;0.00;;;6.50;90.20;;;;;;4187975;28;20135;-67
2022/04/01 11:47:57;;;;;;;0.00;0.00;;;6.50;90.30;;;;;;4166885;28;20078;-69
2022/04/01 11:50:21;;;;;;;0.00;0.00;;;6.50;90.30;;;;;;4180200;28;20045;-72
2022/04/01 11:52:53;;;;;;;0.00;0.00;;;6.40;90.20;;;;;;4142625;28;20073;-70
2022/04/01 11:55:28;;;;;;;0.00;0.00;;;6.40;90.40;;;;;;4139123;28;20104;-68
2022/04/01 11:57:54;;;;;;;0.00;0.00;;;6.50;90.40;;;;;;4150266;28;20053;-70
2022/04/01 12:00:22;;;;;;;0.00;0.00;;;6.50;90.30;;;;;;4150452;28;20056;-68
2022/04/01 12:02:46;;;;;;;0.00;0.00;;;6.60;90.30;;;;;;4163875;28;20531;-68
2022/04/01 12:05:11;;;;;;;0.00;0.00;;;6.60;90.30;;;;;;4164398;28;20599;-69
2022/04/01 12:10:31;;;;;;;0.00;0.00;;;6.50;90.20;;;;;;4136638;28;20113;-66
2022/04/01 12:13:03;;;;;;;0.00;0.00;;;6.50;90.10;;;;;;4136208;28;20050;-67
2022/04/01 12:15:38;;;;;;;0.00;0.00;;;6.40;90.20;;;;;;4156296;28;20053;-70
2022/04/01 12:18:02;;;;;;;0.00;0.00;;;6.30;90.30;;;;;;4151997;28;20070;-67
2022/04/01 12:20:26;;;;;;;0.00;0.00;;;6.30;90.10;;;;;;4163895;28;20053;-67
2022/04/01 12:22:52;;;;;;;0.00;0.00;;;6.10;90.20;;;;;;4136605;28;20467;-68
2022/04/01 12:25:14;;;;;;;0.00;0.00;;;6.20;90.40;;;;;;4149979;28;20050;-66
2022/04/01 12:28:01;;;;;;;0.00;0.00;;;6.20;90.30;;;;;;4163326;28;20049;-69
2022/04/01 12:30:50;;;;;;;0.00;0.00;;;6.10;90.40;;;;;;4138737;28;20064;-68
2022/04/01 12:33:15;;;;;;;0.00;0.00;;;6.10;90.50;;;;;;4152682;28;20357;-69
2022/04/01 12:36:10;;;;;;;0.00;0.00;;;6.00;90.40;;;;;;4156021;28;20056;-69
2022/04/01 12:38:38;;;;;;;0.00;0.00;;;6.00;90.50;;;;;;4169310;28;20124;-69
2022/04/01 12:41:23;;;;;;;0.00;0.00;;;5.90;90.80;;;;;;4182666;28;20479;-69
2022/04/01 12:43:54;;;;;;;0.00;0.00;;;5.70;90.80;;;;;;4169155;28;20044;-68
2022/04/01 12:46:31;;;;;;;0.00;0.00;;;5.70;90.90;;;;;;4152690;28;20108;-68
2022/04/01 12:48:56;;;;;;;0.00;0.00;;;5.80;90.90;;;;;;4138536;28;20047;-67
2022/04/01 12:51:28;;;;;;;0.00;0.00;;;5.90;90.70;;;;;;4139038;28;20408;-68
2022/04/01 12:53:58;;;;;;;0.00;0.00;;;5.90;90.90;;;;;;4166496;28;20492;-69
2022/04/01 12:56:27;;;;;;;0.00;0.00;;;5.90;90.70;;;;;;4159156;28;20057;-68
2022/04/01 12:58:52;;;;;;;0.00;0.00;;;5.80;91.00;;;;;;4154541;28;20061;-68
2022/04/01 13:01:14;;;;;;;0.00;0.00;;;5.60;91.20;;;;;;4152608;28;20038;-68
2022/04/01 13:03:45;;;;;;;0.00;0.00;;;5.60;91.30;;;;;;4166111;28;20042;-69
2022/04/01 13:06:11;;;;;;;0.00;0.00;;;5.60;91.30;;;;;;4166257;28;20542;-67
2022/04/01 13:08:34;;;;;;;0.00;0.00;;;5.60;91.30;;;;;;4152413;28;20050;-68
2022/04/01 13:11:11;;;;;;;0.00;0.00;;;5.60;91.50;;;;;;4138344;28;20531;-68
2022/04/01 13:13:35;;;;;;;0.00;0.00;;;5.70;91.40;;;;;;4152462;28;20057;-67
2022/04/01 13:16:03;;;;;;;0.00;0.00;;;5.70;91.30;;;;;;4152323;28;20088;-69
2022/04/01 13:18:32;;;;;;;0.00;0.00;;;5.70;91.20;;;;;;4152247;28;20053;-68
2022/04/01 13:20:56;;;;;;;0.00;0.00;;;5.70;91.30;;;;;;4174504;28;20362;-68
2022/04/01 13:23:18;;;;;;;0.00;0.00;;;5.70;91.30;;;;;;4171674;28;20834;-68
2022/04/01 13:25:41;;;;;;;0.00;0.00;;;5.60;91.30;;;;;;4168870;28;20468;-67